Time;durP1;ratioP1;P1;durP2;ratioP2;P2;SDS_P1;SDS_P2;PMS_P1;PMS_P2;Temp;Humidity;BMP_temperature;BMP_pressure;BME280_temperature;BME280_humidity;BME280_pressure;Samples;Min_cycle;Max_cycle;Signal;HPM_P1;HPM_P2
2021/05/29 00:02:08;;;;;;;6.00;4.47;;;13.20;91.20;;;13.06;85.60;98679.44;5052122;28;20646;-67
2021/05/29 00:04:36;;;;;;;7.60;4.80;;;13.20;91.30;;;13.08;84.63;98670.56;5054484;28;20610;-67
2021/05/29 00:07:05;;;;;;;4.87;4.43;;;13.20;91.40;;;13.10;86.08;98668.66;5055804;28;21075;-67
2021/05/29 00:09:33;;;;;;;5.60;5.00;;;13.20;91.50;;;13.08;84.61;98675.78;5056074;28;20631;-67
2021/05/29 00:12:03;;;;;;;7.10;5.60;;;13.30;91.30;;;13.10;84.59;98662.59;5037959;28;20687;-67
2021/05/29 00:14:33;;;;;;;8.07;5.40;;;13.20;91.10;;;13.08;83.87;98659.22;5055863;28;20629;-67
2021/05/29 00:17:03;;;;;;;5.40;4.90;;;13.20;91.20;;;13.06;84.71;98656.72;5054538;28;20619;-67
2021/05/29 00:19:31;;;;;;;7.07;4.27;;;13.20;91.20;;;13.03;84.17;98650.84;5055903;28;20685;-67
2021/05/29 00:21:59;;;;;;;5.60;5.00;;;13.20;91.10;;;12.95;85.71;98651.38;5054542;28;20611;-67
2021/05/29 00:24:27;;;;;;;7.23;5.57;;;13.10;91.20;;;12.88;85.73;98647.50;5054273;28;20648;-67
2021/05/29 00:26:56;;;;;;;7.93;5.30;;;13.10;91.50;;;12.85;85.31;98649.50;5054316;28;21193;-67
2021/05/29 00:29:24;;;;;;;5.70;4.93;;;13.00;91.70;;;12.80;86.06;98644.53;5055454;28;20989;-67
2021/05/29 00:31:52;;;;;;;7.00;5.23;;;13.00;92.00;;;12.78;87.26;98640.38;5054356;28;20645;-67
2021/05/29 00:34:21;;;;;;;6.70;6.10;;;13.00;92.10;;;12.79;86.46;98642.88;5050435;28;20756;-67
2021/05/29 00:36:49;;;;;;;6.77;5.50;;;13.00;92.20;;;12.77;85.80;98642.13;5050298;28;21215;-67
2021/05/29 00:39:17;;;;;;;11.10;5.70;;;13.00;92.60;;;12.76;86.95;98637.00;5055423;28;21128;-67
2021/05/29 00:41:45;;;;;;;7.63;5.20;;;13.00;92.30;;;12.75;85.95;98630.94;5055555;28;20643;-67
2021/05/29 00:44:15;;;;;;;6.17;4.77;;;12.90;92.20;;;12.76;86.24;98630.00;5055085;28;20669;-67
2021/05/29 00:46:43;;;;;;;5.23;4.73;;;12.90;92.20;;;12.75;85.28;98630.94;5054935;28;20676;-67
2021/05/29 00:49:11;;;;;;;5.70;5.10;;;12.90;92.20;;;12.74;85.96;98624.03;5055410;28;20645;-67
2021/05/29 00:51:40;;;;;;;5.07;4.57;;;12.90;92.20;;;12.75;87.04;98625.72;5054911;28;20685;-67
2021/05/29 00:54:11;;;;;;;6.13;4.60;;;13.00;92.30;;;12.72;86.13;98625.91;5054929;28;20623;-67
2021/05/29 00:56:39;;;;;;;5.20;4.70;;;12.90;92.20;;;12.70;85.58;98619.09;5053787;28;20997;-67
2021/05/29 00:59:10;;;;;;;6.17;5.20;;;12.90;92.30;;;12.72;85.81;98622.47;5054807;28;20613;-67
2021/05/29 01:01:38;;;;;;;7.63;5.43;;;12.90;92.20;;;12.72;85.12;98612.84;5054919;28;20625;-67
2021/05/29 01:04:07;;;;;;;5.30;4.80;;;12.80;91.90;;;12.62;85.88;98616.19;5054702;28;20660;-67
2021/05/29 01:06:35;;;;;;;6.80;4.50;;;12.80;92.00;;;12.59;86.71;98612.94;5047543;28;20667;-67
2021/05/29 01:09:04;;;;;;;6.37;4.97;;;12.80;92.20;;;12.57;86.59;98626.13;5045184;28;20695;-67
2021/05/29 01:11:32;;;;;;;6.70;5.40;;;12.70;92.40;;;12.52;86.98;98625.56;5050823;28;20782;-67
2021/05/29 01:14:02;;;;;;;5.50;4.70;;;12.70;92.60;;;12.50;85.95;98634.50;5053606;28;20615;-67
2021/05/29 01:16:44;;;;;;;6.10;5.07;;;12.70;92.80;;;12.48;88.42;98637.22;5050461;28;21231;-67
2021/05/29 01:19:14;;;;;;;6.20;5.50;;;12.70;93.00;;;12.46;87.09;98626.03;5054679;28;21130;-67
2021/05/29 01:21:42;;;;;;;7.00;5.43;;;12.70;93.00;;;12.44;88.14;98629.66;5061741;28;20616;-67
2021/05/29 01:24:11;;;;;;;5.70;5.07;;;12.70;93.00;;;12.43;87.48;98630.59;5050379;28;20625;-67
2021/05/29 01:26:39;;;;;;;5.40;4.90;;;12.60;93.10;;;12.42;87.81;98631.56;5054488;28;20736;-67
2021/05/29 01:29:07;;;;;;;9.40;5.00;;;12.60;93.50;;;12.37;86.71;98629.25;5054168;28;21157;-67
2021/05/29 01:31:36;;;;;;;6.00;4.63;;;12.60;93.20;;;12.36;87.76;98634.59;5054595;28;20727;-67
2021/05/29 01:34:04;;;;;;;5.40;4.90;;;12.60;93.30;;;12.35;88.51;98635.50;5052988;28;20692;-67
2021/05/29 01:36:32;;;;;;;6.33;5.30;;;12.50;93.40;;;12.34;87.08;98636.44;5053247;28;20669;-67
2021/05/29 01:39:01;;;;;;;6.73;5.20;;;12.60;93.50;;;12.33;88.33;98637.41;5053002;28;21221;-67
2021/05/29 01:41:30;;;;;;;6.13;5.43;;;12.50;93.30;;;12.32;88.76;98646.19;5050423;28;20667;-67
2021/05/29 01:43:58;;;;;;;6.70;5.33;;;12.50;93.30;;;12.31;87.86;98640.13;5053892;28;21029;-67
2021/05/29 01:46:26;;;;;;;8.20;4.93;;;12.50;93.40;;;12.30;88.06;98632.38;5052751;28;20709;-67
2021/05/29 01:48:54;;;;;;;5.53;5.03;;;12.50;93.40;;;12.28;88.60;98635.09;5054484;28;20678;-67
2021/05/29 01:51:25;;;;;;;5.30;4.80;;;12.50;93.40;;;12.23;88.47;98636.31;5054018;28;21011;-67
2021/05/29 01:53:55;;;;;;;5.97;5.23;;;12.40;93.20;;;12.20;88.87;98633.91;5054160;28;20618;-67
2021/05/29 01:56:23;;;;;;;5.53;5.03;;;12.30;93.30;;;12.19;87.02;98640.06;5053814;28;21177;-67
2021/05/29 01:58:52;;;;;;;5.33;4.83;;;12.40;93.40;;;12.15;88.70;98637.75;5054228;28;20649;-67
2021/05/29 02:01:20;;;;;;;8.40;5.63;;;12.30;93.80;;;12.07;88.18;98629.59;5054044;28;20717;-67
2021/05/29 02:03:48;;;;;;;5.73;5.13;;;12.30;93.50;;;11.98;87.68;98641.50;5053870;28;20625;-67
2021/05/29 02:06:17;;;;;;;5.57;4.97;;;12.20;93.50;;;11.92;89.17;98641.91;5053775;28;20669;-67
2021/05/29 02:08:45;;;;;;;6.10;5.50;;;12.20;93.50;;;11.88;88.13;98629.13;5052326;28;21026;-67
2021/05/29 02:11:13;;;;;;;5.40;4.60;;;12.10;93.80;;;11.86;87.80;98636.22;5049953;28;20652;-67
2021/05/29 02:13:43;;;;;;;9.93;5.00;;;12.10;93.60;;;11.82;89.29;98630.34;5053735;28;20628;-67
2021/05/29 02:16:13;;;;;;;5.30;4.80;;;12.10;93.70;;;11.81;89.52;98640.91;5052946;28;20639;-67
2021/05/29 02:18:42;;;;;;;6.70;4.97;;;12.10;93.70;;;11.77;87.79;98637.66;5056634;28;20935;-67
2021/05/29 02:21:13;;;;;;;5.63;5.10;;;12.00;93.60;;;11.76;87.96;98635.16;5053819;28;20663;-67
2021/05/29 02:23:45;;;;;;;7.73;4.50;;;12.00;93.70;;;11.74;88.29;98638.78;5049482;28;21311;-67
2021/05/29 02:26:15;;;;;;;4.60;4.20;;;12.00;93.70;;;11.71;88.57;98638.97;5049668;28;20625;-67
2021/05/29 02:28:48;;;;;;;7.20;4.47;;;12.00;93.60;;;11.67;88.71;98640.97;5045176;28;20618;-67
2021/05/29 02:31:19;;;;;;;5.57;5.00;;;11.90;93.50;;;11.59;88.20;98638.00;5049993;28;20657;-67
2021/05/29 02:33:48;;;;;;;5.83;4.93;;;11.80;93.30;;;11.56;87.90;98637.34;5051966;28;21224;-67
2021/05/29 02:36:16;;;;;;;6.63;4.97;;;11.80;93.30;;;11.53;87.80;98643.63;5048708;28;20628;-67
2021/05/29 02:38:45;;;;;;;6.03;4.60;;;11.80;93.40;;;11.50;87.29;98637.72;5053301;28;20659;-67
2021/05/29 02:41:14;;;;;;;5.63;4.50;;;11.80;93.40;;;11.49;87.23;98641.28;5053218;28;20632;-67
2021/05/29 02:43:43;;;;;;;5.47;4.87;;;11.70;93.40;;;11.45;87.29;98637.97;5049510;28;20625;-67
2021/05/29 02:46:11;;;;;;;6.33;5.00;;;11.70;93.40;;;11.45;88.46;98639.75;5049165;28;20678;-67
2021/05/29 02:48:40;;;;;;;5.67;5.10;;;11.70;93.40;;;11.43;87.94;98642.47;5051726;28;20651;-67
2021/05/29 02:51:10;;;;;;;7.03;4.80;;;11.60;93.60;;;11.38;88.41;98646.28;5065061;28;20612;-67
2021/05/29 02:53:39;;;;;;;5.83;5.23;;;11.60;93.40;;;11.34;88.84;98643.03;5052822;28;20999;-67
2021/05/29 02:56:07;;;;;;;10.10;5.20;;;11.60;93.30;;;11.30;88.85;98646.78;5052778;28;20626;-67
2021/05/29 02:58:35;;;;;;;6.00;5.00;;;11.60;93.40;;;11.30;88.84;98645.94;5052745;28;20702;-67
2021/05/29 03:01:04;;;;;;;5.43;4.93;;;11.50;93.40;;;11.29;87.73;98646.91;5052677;28;20645;-67
2021/05/29 03:03:32;;;;;;;5.80;5.20;;;11.50;93.30;;;11.28;87.45;98645.22;5051352;28;20623;-67
2021/05/29 03:06:02;;;;;;;5.90;5.30;;;11.50;93.40;;;11.28;88.02;98650.44;5051299;28;20722;-67
2021/05/29 03:08:30;;;;;;;5.40;4.90;;;11.50;93.50;;;11.30;87.44;98651.16;5052580;28;20613;-67
2021/05/29 03:10:58;;;;;;;7.67;6.30;;;11.50;93.50;;;11.31;88.76;98652.84;5052665;28;20633;-67
2021/05/29 03:13:26;;;;;;;6.67;6.07;;;11.50;93.50;;;11.33;87.70;98661.44;5052400;28;20644;-67
2021/05/29 03:15:55;;;;;;;7.23;5.33;;;11.50;93.50;;;11.30;88.39;98661.63;5048364;28;21152;-67
2021/05/29 03:18:23;;;;;;;7.47;5.40;;;11.50;93.30;;;11.27;87.16;98662.66;5051387;28;20608;-67
2021/05/29 03:20:51;;;;;;;5.47;4.97;;;11.40;93.30;;;11.26;88.68;98669.72;5052440;28;20942;-67
2021/05/29 03:23:20;;;;;;;6.40;4.87;;;11.50;93.40;;;11.18;88.15;98669.38;5051153;28;21425;-67
2021/05/29 03:25:48;;;;;;;5.00;4.50;;;11.40;93.10;;;11.07;87.64;98667.41;5052203;28;20621;-67
2021/05/29 03:28:16;;;;;;;6.03;4.80;;;11.30;92.80;;;11.06;86.92;98668.34;5051362;28;20604;-67
2021/05/29 03:30:45;;;;;;;5.80;5.20;;;11.30;92.90;;;11.01;88.01;98667.78;5052294;28;20701;-67
2021/05/29 03:33:13;;;;;;;7.00;5.90;;;11.30;93.00;;;11.00;86.98;98666.09;5052374;28;20751;-67
2021/05/29 03:35:41;;;;;;;8.40;6.00;;;11.20;93.00;;;11.01;88.01;98672.19;5052316;28;20636;-67
2021/05/29 03:38:10;;;;;;;6.57;5.83;;;11.20;93.50;;;11.01;87.99;98680.84;5051993;28;20674;-66
2021/05/29 03:40:39;;;;;;;6.13;5.50;;;11.20;93.30;;;11.03;88.22;98670.31;5048256;28;20648;-66
2021/05/29 03:43:07;;;;;;;6.10;5.50;;;11.20;93.40;;;11.04;87.34;98678.03;5055453;28;21017;-66
2021/05/29 03:45:35;;;;;;;5.87;5.27;;;11.20;93.50;;;11.06;88.45;98680.56;5051855;28;20686;-66
2021/05/29 03:48:04;;;;;;;5.20;4.70;;;11.20;93.60;;;11.07;88.64;98677.84;5052214;28;20624;-66
2021/05/29 03:50:38;;;;;;;5.50;5.00;;;11.30;93.70;;;11.05;88.22;98686.69;5052121;28;20625;-66
2021/05/29 03:53:07;;;;;;;6.73;6.03;;;11.30;94.00;;;11.03;88.24;98686.78;5048105;28;20692;-66
2021/05/29 03:55:36;;;;;;;5.77;5.27;;;11.20;93.50;;;11.01;88.34;98691.28;5050809;28;20629;-66
2021/05/29 03:58:06;;;;;;;5.50;4.90;;;11.20;93.50;;;11.03;88.88;98688.56;5052382;28;20632;-66
2021/05/29 04:00:34;;;;;;;6.30;5.70;;;11.20;93.60;;;11.07;88.50;98688.28;5052442;28;20643;-66
2021/05/29 04:03:03;;;;;;;5.80;5.20;;;11.20;93.70;;;11.11;87.85;98692.41;5052230;28;20628;-67
2021/05/29 04:05:31;;;;;;;5.60;4.93;;;11.30;93.80;;;11.15;87.88;98688.66;5051638;28;21144;-67
2021/05/29 04:07:59;;;;;;;8.83;5.60;;;11.30;93.70;;;11.17;87.43;98693.78;5052133;28;20629;-67
2021/05/29 04:10:30;;;;;;;5.60;5.10;;;11.30;93.80;;;11.20;87.87;98691.84;5051992;28;20617;-67
2021/05/29 04:12:58;;;;;;;5.90;5.30;;;11.40;93.80;;;11.20;88.28;98694.47;5051698;28;21275;-67
2021/05/29 04:15:29;;;;;;;5.83;5.20;;;11.40;93.60;;;11.20;88.23;98697.06;5050563;28;20628;-67
2021/05/29 04:17:58;;;;;;;5.63;5.13;;;11.40;93.60;;;11.23;88.01;98696.88;5051725;28;21188;-67
2021/05/29 04:20:28;;;;;;;5.90;4.60;;;11.40;93.60;;;11.26;88.11;98701.06;5051886;28;20620;-66
2021/05/29 04:22:56;;;;;;;5.57;4.97;;;11.40;93.70;;;11.29;88.31;98699.13;5051867;28;21194;-66
2021/05/29 04:25:28;;;;;;;6.33;5.10;;;11.50;93.80;;;11.32;88.60;98697.16;5051992;28;20609;-66
2021/05/29 04:27:57;;;;;;;6.70;4.90;;;11.50;93.90;;;11.35;88.62;98702.19;5051988;28;20630;-66
2021/05/29 04:30:28;;;;;;;5.07;4.57;;;11.50;93.80;;;11.39;87.73;98702.81;5051651;28;20612;-66
2021/05/29 04:32:56;;;;;;;5.10;4.63;;;11.60;93.80;;;11.43;88.47;98699.09;5058790;28;21304;-66
2021/05/29 04:35:25;;;;;;;5.47;4.77;;;11.60;93.80;;;11.47;86.54;98706.69;5050522;28;20670;-66
2021/05/29 04:37:53;;;;;;;4.70;4.20;;;11.60;93.60;;;11.50;87.97;98703.88;5051895;28;20678;-66
2021/05/29 04:40:26;;;;;;;5.50;5.00;;;11.70;93.50;;;11.58;86.52;98708.63;5049174;28;20609;-66
2021/05/29 04:42:55;;;;;;;6.30;5.20;;;11.70;93.50;;;11.62;86.87;98715.31;5051587;28;20674;-66
2021/05/29 04:45:23;;;;;;;5.50;4.83;;;11.80;93.50;;;11.66;86.62;98712.44;5050548;28;20624;-66
2021/05/29 04:47:53;;;;;;;6.57;5.23;;;11.80;93.40;;;11.70;86.92;98713.06;5051724;28;20616;-66
2021/05/29 04:50:23;;;;;;;7.10;6.40;;;11.90;93.50;;;11.75;86.71;98721.47;5052471;28;20613;-66
2021/05/29 04:52:51;;;;;;;7.00;5.70;;;11.90;93.30;;;11.77;86.92;98713.44;5053917;28;21048;-66
2021/05/29 04:55:19;;;;;;;8.50;5.50;;;11.90;93.10;;;11.79;86.39;98722.00;5055131;28;20648;-66
2021/05/29 04:57:48;;;;;;;5.43;4.93;;;11.90;93.20;;;11.83;85.87;98715.66;5055321;28;20666;-66
2021/05/29 05:00:18;;;;;;;7.57;5.50;;;12.00;92.90;;;11.87;85.16;98716.31;5055446;28;20606;-66
2021/05/29 05:02:46;;;;;;;6.30;5.47;;;12.00;92.80;;;11.93;87.40;98714.13;5055203;28;21050;-66
2021/05/29 05:05:17;;;;;;;5.33;4.70;;;12.00;93.00;;;11.98;85.83;98719.94;5055101;28;20687;-66
2021/05/29 05:07:45;;;;;;;6.10;4.93;;;12.10;93.00;;;12.02;85.11;98717.94;5054575;28;20618;-66
2021/05/29 05:10:13;;;;;;;6.30;5.67;;;12.10;93.00;;;12.07;86.30;98715.88;5054884;28;20675;-66
2021/05/29 05:12:43;;;;;;;7.13;5.40;;;12.20;93.10;;;12.14;87.33;98715.38;5054963;28;20638;-66
2021/05/29 05:15:13;;;;;;;6.13;5.53;;;12.20;93.10;;;12.23;86.44;98720.00;5051688;28;21068;-66
2021/05/29 05:17:41;;;;;;;5.80;5.23;;;12.30;93.10;;;12.31;86.29;98718.59;5054811;28;20956;-66
2021/05/29 05:20:11;;;;;;;5.67;5.17;;;12.40;93.00;;;12.41;85.22;98717.03;5054770;28;20621;-66
2021/05/29 05:22:40;;;;;;;6.40;5.80;;;12.50;93.00;;;12.52;84.95;98713.72;5054583;28;20647;-66
2021/05/29 05:25:11;;;;;;;5.73;5.13;;;12.60;92.70;;;12.62;86.00;98723.47;5053482;28;20962;-66
2021/05/29 05:27:39;;;;;;;6.20;5.43;;;12.70;92.60;;;12.74;84.98;98718.25;5054894;28;20632;-66
2021/05/29 05:30:10;;;;;;;5.93;5.33;;;12.80;92.70;;;12.86;84.97;98720.06;5053165;28;20655;-66
2021/05/29 05:32:40;;;;;;;6.30;5.70;;;12.90;92.40;;;12.97;84.48;98719.34;5054349;28;20689;-66
2021/05/29 05:35:13;;;;;;;5.93;5.40;;;13.00;92.00;;;13.05;84.81;98724.91;5054182;28;20661;-66
2021/05/29 05:37:43;;;;;;;6.50;5.90;;;13.10;91.90;;;13.18;83.63;98723.13;5054504;28;21015;-66
2021/05/29 05:40:12;;;;;;;7.90;6.03;;;13.20;91.60;;;13.46;83.79;98729.81;5054424;28;20667;-66
2021/05/29 05:42:40;;;;;;;7.60;5.93;;;13.40;91.80;;;13.96;82.75;98733.16;5052933;28;20691;-66
2021/05/29 05:45:10;;;;;;;7.00;5.70;;;13.80;91.40;;;14.63;82.33;98739.50;5054358;28;20626;-67
2021/05/29 05:47:38;;;;;;;5.43;4.93;;;14.40;91.30;;;15.36;79.88;98736.47;5054086;28;20603;-67
2021/05/29 05:50:09;;;;;;;6.67;5.97;;;15.00;90.00;;;16.04;76.87;98743.25;5054073;28;20620;-67
2021/05/29 05:52:37;;;;;;;6.93;5.17;;;15.70;87.20;;;16.56;74.50;98752.16;5054058;28;20651;-67
2021/05/29 05:55:11;;;;;;;6.60;5.33;;;16.20;83.30;;;17.07;73.69;98746.88;5054066;28;20622;-67
2021/05/29 05:57:39;;;;;;;5.93;5.33;;;16.80;81.70;;;17.47;70.90;98750.50;5054012;28;20621;-67
2021/05/29 06:00:10;;;;;;;5.47;4.97;;;17.30;77.40;;;17.82;69.18;98751.75;5052498;28;20628;-67
2021/05/29 06:02:38;;;;;;;5.93;5.27;;;17.70;75.00;;;18.14;69.86;98748.00;5052366;28;20638;-67
2021/05/29 06:05:08;;;;;;;5.50;5.00;;;18.00;74.60;;;18.57;67.95;98757.25;5052519;28;20619;-67
2021/05/29 06:07:36;;;;;;;5.97;5.27;;;18.50;72.40;;;18.92;66.05;98757.53;5053852;28;20666;-67
2021/05/29 06:10:08;;;;;;;6.93;4.90;;;18.80;71.00;;;19.21;65.86;98763.66;5053877;28;20662;-67
2021/05/29 06:12:40;;;;;;;5.90;5.03;;;19.20;68.90;;;19.38;64.33;98761.97;5049561;28;21061;-67
2021/05/29 06:18:08;;;;;;;5.07;4.67;;;19.70;66.40;;;19.79;63.31;98760.75;5053563;28;21199;-67
2021/05/29 06:20:41;;;;;;;5.47;4.97;;;19.90;64.90;;;20.09;64.70;98764.81;5051314;28;20682;-67
2021/05/29 06:23:12;;;;;;;8.47;5.00;;;20.10;67.20;;;20.29;63.09;98769.03;5053420;28;20660;-67
2021/05/29 06:25:41;;;;;;;5.87;5.27;;;20.30;64.80;;;20.41;62.25;98768.66;5052143;28;20620;-67
2021/05/29 06:28:10;;;;;;;5.77;5.17;;;20.30;63.00;;;20.54;61.85;98773.63;5053337;28;20675;-65
2021/05/29 06:30:38;;;;;;;5.07;4.57;;;20.50;62.50;;;20.74;61.11;98765.41;5060321;28;21156;-65
2021/05/29 06:33:07;;;;;;;6.47;5.43;;;20.60;62.60;;;21.05;61.94;98772.00;5051292;28;20700;-65
2021/05/29 06:35:35;;;;;;;6.23;4.57;;;20.80;64.10;;;21.35;60.70;98772.44;5052646;28;21044;-65
2021/05/29 06:38:05;;;;;;;6.60;5.77;;;21.10;63.00;;;21.52;60.93;98766.28;5051676;28;20628;-65
2021/05/29 06:40:33;;;;;;;5.80;5.03;;;21.30;61.70;;;21.60;58.19;98768.97;5053115;28;20626;-65
2021/05/29 06:43:03;;;;;;;5.57;4.53;;;21.40;59.00;;;21.68;60.66;98771.69;5053181;28;20992;-65
2021/05/29 06:45:32;;;;;;;5.00;4.60;;;21.50;59.50;;;21.90;59.02;98777.28;5053231;28;20614;-65
2021/05/29 06:48:01;;;;;;;5.13;4.63;;;21.60;59.70;;;21.95;59.00;98774.97;5051702;28;20623;-65
2021/05/29 06:50:30;;;;;;;4.40;4.00;;;21.70;58.70;;;22.12;56.58;98782.06;5053477;28;20625;-65
2021/05/29 06:53:00;;;;;;;3.63;3.33;;;21.90;57.40;;;22.18;54.97;98781.44;5053139;28;20645;-65
2021/05/29 07:01:01;;;;;;;3.37;3.07;;;22.30;56.90;;;22.82;55.90;98789.47;5050203;28;20621;-65
2021/05/29 07:03:29;;;;;;;6.87;3.10;;;22.50;55.40;;;22.84;53.31;98786.66;5052898;28;21160;-65
2021/05/29 07:05:57;;;;;;;3.40;3.10;;;22.60;52.80;;;22.80;51.37;98780.81;5052632;28;21159;-65
2021/05/29 07:08:25;;;;;;;2.83;2.53;;;22.50;50.50;;;22.79;52.07;98783.63;5052847;28;21189;-65
2021/05/29 07:10:53;;;;;;;3.03;2.73;;;22.50;50.30;;;22.89;52.12;98774.50;5048959;28;20618;-65
2021/05/29 07:13:22;;;;;;;2.83;2.53;;;22.60;51.40;;;23.13;52.70;98779.06;5052145;28;20731;-65
2021/05/29 07:15:51;;;;;;;4.37;3.03;;;22.80;51.00;;;23.39;50.85;98783.22;5050875;28;20669;-65
2021/05/29 07:18:22;;;;;;;2.80;2.50;;;23.00;50.40;;;23.66;50.51;98770.41;5052472;28;20998;-65
2021/05/29 07:20:50;;;;;;;4.80;2.63;;;23.30;51.00;;;23.87;51.60;98778.69;5051316;28;20614;-65
2021/05/29 07:23:24;;;;;;;3.50;2.73;;;23.50;50.50;;;23.98;50.00;98780.97;5048727;28;20612;-65
2021/05/29 07:25:52;;;;;;;5.93;2.20;;;23.60;49.60;;;23.76;48.76;98774.53;5051099;28;20643;-65
2021/05/29 07:28:20;;;;;;;3.40;2.77;;;23.60;46.80;;;23.93;51.65;98770.81;5052587;28;20637;-66
2021/05/29 07:30:50;;;;;;;2.70;2.50;;;23.70;49.70;;;24.07;48.79;98775.47;5052402;28;20626;-65
2021/05/29 07:33:18;;;;;;;2.87;2.40;;;23.80;47.70;;;24.10;52.72;98769.78;5052106;28;20646;-65
2021/05/29 07:35:47;;;;;;;3.43;2.60;;;23.80;50.40;;;23.72;48.40;98764.38;5052255;28;21228;-65
2021/05/29 07:38:15;;;;;;;2.47;2.27;;;23.40;45.10;;;23.56;47.41;98769.72;5052242;28;20621;-65
2021/05/29 07:40:43;;;;;;;2.87;2.40;;;23.20;45.30;;;23.65;50.10;98771.41;5051001;28;20614;-65
2021/05/29 07:43:12;;;;;;;2.40;2.20;;;23.30;47.40;;;23.96;48.66;98767.81;5052213;28;20675;-65
2021/05/29 07:45:40;;;;;;;3.10;2.50;;;23.50;47.20;;;23.97;48.34;98776.66;5060598;28;21150;-65
2021/05/29 07:48:09;;;;;;;2.63;2.10;;;23.60;45.50;;;23.92;48.12;98771.84;5052088;28;20632;-65
2021/05/29 07:50:57;;;;;;;3.33;2.60;;;23.60;45.70;;;23.95;48.48;98776.84;5051974;28;20629;-65
2021/05/29 07:53:26;;;;;;;2.50;2.30;;;23.60;45.40;;;23.84;46.97;98769.19;5044171;28;20635;-65
2021/05/29 07:55:57;;;;;;;3.07;2.60;;;23.60;44.30;;;24.01;48.06;98773.50;5052223;28;20631;-65
2021/05/29 07:58:26;;;;;;;2.60;2.10;;;23.70;45.10;;;24.14;48.36;98768.44;5048754;28;20684;-65
2021/05/29 08:00:54;;;;;;;4.43;2.43;;;23.80;45.80;;;24.27;46.80;98768.72;5050703;28;21157;-65
2021/05/29 08:03:26;;;;;;;3.30;2.40;;;23.90;44.50;;;24.31;46.76;98765.53;5048560;28;20680;-65
2021/05/29 08:05:55;;;;;;;3.37;2.30;;;24.00;43.50;;;24.39;47.84;98773.53;5052060;28;20670;-65
2021/05/29 08:08:25;;;;;;;3.20;2.60;;;24.00;45.40;;;24.44;46.90;98762.34;5050916;28;20672;-65
2021/05/29 08:10:56;;;;;;;2.87;2.57;;;24.10;43.40;;;24.59;47.78;98765.94;5038978;28;20612;-65
2021/05/29 08:13:24;;;;;;;2.40;2.20;;;24.20;44.50;;;24.57;48.06;98763.44;5048423;28;20626;-65
2021/05/29 08:15:53;;;;;;;4.00;3.00;;;24.30;45.20;;;24.72;48.25;98767.03;5048033;28;20956;-65
2021/05/29 08:18:22;;;;;;;3.20;2.60;;;24.40;44.50;;;24.73;46.78;98758.00;5052097;28;20619;-65
2021/05/29 08:20:52;;;;;;;3.00;2.70;;;24.50;43.50;;;24.69;47.64;98764.72;5048018;28;20636;-65
2021/05/29 08:23:20;;;;;;;3.43;2.53;;;24.50;44.40;;;24.55;48.07;98768.13;5043841;28;20607;-65
2021/05/29 08:25:49;;;;;;;2.80;2.33;;;24.30;43.90;;;24.51;48.13;98758.81;5050497;28;20631;-65
2021/05/29 08:28:17;;;;;;;3.07;2.57;;;24.30;46.00;;;24.55;46.79;98760.13;5056040;28;20677;-65
2021/05/29 08:30:45;;;;;;;3.63;2.73;;;24.30;43.80;;;24.09;46.32;98764.63;5037755;28;20654;-65
2021/05/29 08:33:14;;;;;;;2.80;2.40;;;23.80;42.00;;;23.61;46.25;98753.25;5054257;28;20961;-65
2021/05/29 08:35:43;;;;;;;2.60;2.27;;;23.50;41.60;;;23.06;47.66;98749.59;5054400;28;20635;-65
2021/05/29 08:38:11;;;;;;;3.33;2.50;;;23.00;42.90;;;23.55;50.60;98756.56;5054383;28;20647;-65
2021/05/29 08:40:39;;;;;;;2.40;2.20;;;23.20;47.00;;;23.95;49.38;98757.31;5055516;28;20635;-65
2021/05/29 08:43:09;;;;;;;3.70;2.20;;;23.60;47.80;;;23.58;50.12;98754.41;5055409;28;20778;-65
2021/05/29 08:45:37;;;;;;;2.33;2.13;;;23.40;46.80;;;23.08;48.84;98746.75;5054416;28;20609;-65
2021/05/29 08:48:07;;;;;;;3.70;2.20;;;23.00;43.70;;;22.55;49.42;98743.69;5054290;28;20617;-65
2021/05/29 08:50:36;;;;;;;2.60;1.93;;;22.60;44.60;;;22.67;49.95;98755.66;5050793;28;20964;-65
2021/05/29 08:53:05;;;;;;;2.80;2.30;;;22.50;46.60;;;23.26;50.59;98746.44;5053568;28;20638;-65
2021/05/29 08:55:33;;;;;;;2.50;2.30;;;22.90;48.10;;;23.55;50.90;98745.91;5055123;28;21016;-65
2021/05/29 08:58:01;;;;;;;2.17;1.80;;;23.20;47.50;;;23.62;47.78;98753.06;5054267;28;20679;-65
2021/05/29 09:00:29;;;;;;;2.33;1.90;;;23.30;45.00;;;23.79;48.55;98750.22;5055401;28;20669;-65
2021/05/29 09:03:04;;;;;;;2.43;2.17;;;23.40;44.80;;;23.84;48.38;98758.53;5055219;28;20629;-65
2021/05/29 09:05:43;;;;;;;3.03;2.10;;;23.50;44.80;;;23.83;46.72;98756.03;5054884;28;20618;-65
2021/05/29 09:08:14;;;;;;;1.87;1.70;;;23.50;42.80;;;23.83;46.25;98761.34;5037862;28;20719;-65
2021/05/29 09:10:46;;;;;;;2.10;1.90;;;23.50;42.50;;;24.01;46.89;98754.81;5054211;28;20691;-65
2021/05/29 09:13:16;;;;;;;2.07;1.87;;;23.60;42.60;;;23.95;45.57;98752.00;5055547;28;20622;-65
2021/05/29 09:15:54;;;;;;;3.93;1.90;;;23.60;41.40;;;23.94;46.34;98761.00;5049961;28;20706;-65
2021/05/29 09:18:33;;;;;;;2.30;1.80;;;23.60;42.80;;;24.22;48.90;98755.06;5051982;28;20647;-65
2021/05/29 09:21:29;;;;;;;2.40;1.90;;;23.70;45.70;;;24.09;43.61;98759.31;5054537;28;20631;-65
2021/05/29 09:24:01;;;;;;;2.03;1.83;;;23.70;39.90;;;23.31;44.29;98751.28;5054302;28;20620;-65
2021/05/29 09:26:46;;;;;;;4.63;2.20;;;23.10;38.90;;;22.52;45.58;98762.66;5067480;28;20680;-65
2021/05/29 09:29:19;;;;;;;2.93;2.20;;;22.40;40.10;;;21.90;46.07;98758.69;5061894;28;21169;-65
2021/05/29 09:31:58;;;;;;;4.70;3.10;;;21.90;40.50;;;21.76;46.43;98751.31;5051103;28;21243;-65
2021/05/29 09:34:39;;;;;;;2.67;1.80;;;21.60;41.60;;;22.04;47.37;98766.06;5050827;28;20656;-65
2021/05/29 09:37:13;;;;;;;2.57;1.63;;;21.70;42.40;;;21.92;47.80;98757.56;5053600;28;20625;-65
2021/05/29 09:39:44;;;;;;;2.00;1.80;;;21.70;43.60;;;21.41;47.38;98759.38;5054327;28;20615;-65
2021/05/29 09:42:15;;;;;;;2.30;1.87;;;21.20;41.90;;;20.96;49.83;98757.00;5054510;28;20630;-65
2021/05/29 09:44:43;;;;;;;3.60;2.50;;;20.90;43.30;;;20.86;50.44;98756.25;5050815;28;20684;-65
2021/05/29 09:47:14;;;;;;;2.20;2.00;;;20.80;44.40;;;20.92;50.68;98751.16;5054057;28;20763;-65
2021/05/29 09:49:49;;;;;;;2.30;1.80;;;20.80;45.10;;;21.30;50.14;98759.63;5049143;28;20630;-65
2021/05/29 09:52:32;;;;;;;2.43;2.03;;;21.00;46.10;;;21.31;49.73;98761.25;5051002;28;20605;-65
2021/05/29 09:55:06;;;;;;;3.50;2.07;;;21.10;44.90;;;21.71;50.07;98761.59;5051088;28;20649;-65
2021/05/29 09:57:51;;;;;;;2.60;1.93;;;21.40;47.20;;;22.21;49.60;98766.03;5053983;28;20617;-65
2021/05/29 10:00:20;;;;;;;2.83;1.97;;;21.80;46.20;;;22.22;49.02;98766.84;5051104;28;20994;-65
2021/05/29 10:02:58;;;;;;;2.30;2.00;;;21.80;44.90;;;22.37;49.99;98772.22;5053743;28;21451;-65
2021/05/29 10:05:28;;;;;;;2.67;1.67;;;22.00;45.90;;;22.49;48.54;98773.59;5052664;28;20611;-65
2021/05/29 10:07:56;;;;;;;2.50;1.90;;;22.10;44.80;;;22.43;49.37;98763.63;5053791;28;20615;-65
2021/05/29 10:10:25;;;;;;;1.90;1.70;;;22.10;45.20;;;21.87;48.04;98762.50;5054020;28;20630;-65
2021/05/29 10:12:54;;;;;;;2.53;1.70;;;21.70;43.30;;;21.55;48.50;98766.78;5053893;28;20619;-65
2021/05/29 10:15:22;;;;;;;2.27;1.80;;;21.50;44.00;;;21.57;50.20;98767.44;5052802;28;21269;-65
2021/05/29 10:17:51;;;;;;;2.03;1.80;;;21.50;45.10;;;21.95;49.67;98769.66;5052541;28;21177;-65
2021/05/29 10:20:19;;;;;;;2.03;1.80;;;21.70;45.90;;;22.40;49.63;98771.91;5052308;28;20622;-65
2021/05/29 10:22:48;;;;;;;1.47;1.37;;;22.00;46.10;;;22.49;48.91;98770.94;5053583;28;20634;-65
2021/05/29 10:25:19;;;;;;;3.47;1.67;;;22.20;44.70;;;22.45;50.05;98771.44;5053321;28;20635;-65
2021/05/29 10:27:51;;;;;;;2.63;1.90;;;22.20;45.40;;;21.80;47.02;98772.09;5052197;28;20615;-65
2021/05/29 10:30:21;;;;;;;2.43;1.50;;;21.80;42.20;;;21.16;47.91;98758.50;5053540;28;20627;-65
2021/05/29 10:33:10;;;;;;;3.23;1.37;;;21.10;42.10;;;21.37;48.85;98755.34;5053160;28;20617;-65
2021/05/29 10:35:39;;;;;;;1.83;1.43;;;21.10;44.40;;;21.78;47.51;98763.47;5053211;28;20668;-65
2021/05/29 10:38:08;;;;;;;3.27;1.57;;;21.40;43.90;;;22.23;48.92;98767.50;5053374;28;20613;-64
2021/05/29 10:40:41;;;;;;;2.27;1.50;;;21.80;45.60;;;22.37;48.37;98761.59;5052754;28;20631;-64